Rillito, Arizona
Current Conditions -  °F | °C
As of 7:48 PM on Friday 24 Oct 2014 (Local Time) from KRYN Reporting Station
Clear Clear  
Wind Chill: 79°   Ceiling: Unl
Heat Index: 79°   Visibility: 10mi
Dew Point: 50°   Wind: 6mph
Humidity: 36%   Direction: 210°SSW
Pressure: 30.08"   Gusts: NA
Location:  32.41°N, 111.16°W
Report Text: KRYN 250248Z 21005KT 10SM CLR 26/10 A3008
Loading
Personal Weather Stations






























Interactive Weather Map
Tropical Storm Tracking
New forecast layout! Learn more

10-Day Weather Forecast

Advertisements
Track Severe Weather on mobile